createdAt,value
2017-06-29T00:00:51.767Z,19.1
2017-06-29T00:01:54.477Z,19.1
2017-06-29T00:02:56.829Z,19.1
2017-06-29T00:03:58.853Z,19.1
2017-06-29T00:05:00.878Z,19.1
2017-06-29T00:06:02.906Z,19.1
2017-06-29T00:07:04.929Z,19.1
2017-06-29T00:08:06.943Z,19.1
2017-06-29T00:09:08.955Z,19.1
2017-06-29T00:10:10.978Z,19.1
2017-06-29T00:11:13.357Z,19.1
2017-06-29T00:12:15.378Z,19.1
2017-06-29T00:13:17.395Z,19
2017-06-29T00:14:19.772Z,19
2017-06-29T00:15:21.790Z,19
2017-06-29T00:16:24.154Z,19
2017-06-29T00:17:26.177Z,19
2017-06-29T00:18:28.186Z,19
2017-06-29T00:19:30.200Z,19
2017-06-29T00:20:32.219Z,19
2017-06-29T00:21:34.236Z,19
2017-06-29T00:22:36.252Z,19
2017-06-29T00:23:38.613Z,18.9
2017-06-29T00:24:40.629Z,18.9
2017-06-29T00:25:42.640Z,18.9
2017-06-29T00:26:44.652Z,18.9
2017-06-29T00:27:46.684Z,18.9
2017-06-29T00:28:48.701Z,18.9
2017-06-29T00:29:50.718Z,18.9
2017-06-29T00:30:52.737Z,18.8
2017-06-29T00:31:54.759Z,18.8
2017-06-29T00:32:57.451Z,18.8
2017-06-29T00:33:59.467Z,18.8
2017-06-29T00:35:01.491Z,18.8
2017-06-29T00:36:03.504Z,18.8
2017-06-29T00:37:05.519Z,18.8
2017-06-29T00:38:07.538Z,18.7
2017-06-29T00:39:09.559Z,18.7
2017-06-29T00:40:11.580Z,18.7
2017-06-29T00:41:44.011Z,18.6
2017-06-29T00:42:46.372Z,18.6
2017-06-29T00:43:49.086Z,18.6
2017-06-29T00:44:51.099Z,18.6
2017-06-29T00:45:53.117Z,18.6
2017-06-29T00:46:55.136Z,18.6
2017-06-29T00:47:57.153Z,18.6
2017-06-29T00:48:59.175Z,18.5
2017-06-29T00:50:01.188Z,18.5
2017-06-29T00:51:03.211Z,18.5
2017-06-29T00:52:05.239Z,18.5
2017-06-29T00:53:07.252Z,18.5
2017-06-29T00:54:09.273Z,18.5
2017-06-29T00:55:11.289Z,18.4
2017-06-29T00:56:13.300Z,18.4
2017-06-29T00:57:15.329Z,18.4
2017-06-29T00:58:17.347Z,18.3
2017-06-29T00:59:19.698Z,18.3
2017-06-29T01:00:21.719Z,18.2
2017-06-29T01:01:23.732Z,18.2
2017-06-29T01:02:25.755Z,18.2
2017-06-29T01:03:27.771Z,18.2
2017-06-29T01:04:29.795Z,18.2
2017-06-29T01:05:31.816Z,18.3
2017-06-29T01:06:33.832Z,18.3
2017-06-29T01:07:36.189Z,18.3
2017-06-29T01:08:38.209Z,18.3
2017-06-29T01:09:40.229Z,18.3
2017-06-29T01:10:42.247Z,18.3
2017-06-29T01:11:44.271Z,18.3
2017-06-29T01:12:46.295Z,18.3
2017-06-29T01:13:49.332Z,18.3
2017-06-29T01:14:51.349Z,18.3
2017-06-29T01:15:53.372Z,18.3
2017-06-29T01:16:55.390Z,18.3
2017-06-29T01:17:57.401Z,18.3
2017-06-29T01:18:59.416Z,18.2
2017-06-29T01:20:01.432Z,18.2
2017-06-29T01:21:03.788Z,18.2
2017-06-29T01:22:05.804Z,18.2
2017-06-29T01:23:07.823Z,18.2
2017-06-29T01:24:09.851Z,18.2
2017-06-29T01:25:11.866Z,18.2
2017-06-29T01:26:13.888Z,18.2
2017-06-29T01:27:16.245Z,18.2
2017-06-29T01:28:19.280Z,18.2
2017-06-29T01:29:21.645Z,18.2
2017-06-29T01:30:23.695Z,18.2
2017-06-29T01:31:25.715Z,18.2
2017-06-29T01:32:27.739Z,18.2
2017-06-29T01:33:30.096Z,18.2
2017-06-29T01:34:32.456Z,18.2
2017-06-29T01:35:34.820Z,18.2
2017-06-29T01:36:36.832Z,18.2
2017-06-29T01:37:38.856Z,18.2
2017-06-29T01:38:40.866Z,18.2
2017-06-29T01:39:42.884Z,18.2
2017-06-29T01:40:44.907Z,18.2
2017-06-29T01:41:46.923Z,18.3
2017-06-29T01:42:48.940Z,18.3
2017-06-29T01:43:50.954Z,18.3
2017-06-29T01:44:52.974Z,18.3
2017-06-29T01:45:54.992Z,18.3
2017-06-29T01:46:57.341Z,18.2
2017-06-29T01:47:59.361Z,18.1
2017-06-29T01:49:01.382Z,18.1
2017-06-29T01:50:03.396Z,18.1
2017-06-29T01:51:05.419Z,18.1
2017-06-29T01:52:07.443Z,18.1
2017-06-29T01:53:09.461Z,18.1
2017-06-29T01:54:11.829Z,18
2017-06-29T01:55:13.844Z,18
2017-06-29T01:56:15.866Z,18
2017-06-29T01:57:18.208Z,18
2017-06-29T01:58:20.230Z,18
2017-06-29T01:59:22.247Z,18
2017-06-29T02:00:24.265Z,18
2017-06-29T02:01:26.616Z,18
2017-06-29T02:02:28.628Z,18
2017-06-29T02:03:30.983Z,17.9
2017-06-29T02:04:33.350Z,17.8
2017-06-29T02:05:35.367Z,17.8
2017-06-29T02:06:37.391Z,17.8
2017-06-29T02:07:39.405Z,17.8
2017-06-29T02:08:41.422Z,17.8
2017-06-29T02:09:43.781Z,17.8
2017-06-29T02:10:45.795Z,17.8
2017-06-29T02:11:47.813Z,17.8
2017-06-29T02:12:49.836Z,17.7
2017-06-29T02:13:51.857Z,17.7
2017-06-29T02:14:53.869Z,17.7
2017-06-29T02:15:55.888Z,17.7
2017-06-29T02:16:57.901Z,17.8
2017-06-29T02:18:00.254Z,17.7
2017-06-29T02:19:02.273Z,17.8
2017-06-29T02:20:04.295Z,17.8
2017-06-29T02:21:06.666Z,17.8
2017-06-29T02:22:08.683Z,17.9
2017-06-29T02:23:10.697Z,17.9
2017-06-29T02:24:12.718Z,17.9
2017-06-29T02:25:14.731Z,17.9
2017-06-29T02:26:16.747Z,17.9
2017-06-29T02:27:18.764Z,17.9
2017-06-29T02:28:20.793Z,17.9
2017-06-29T02:29:22.808Z,17.9
2017-06-29T02:30:25.169Z,17.9
2017-06-29T02:31:27.193Z,18
2017-06-29T02:32:29.213Z,18
2017-06-29T02:33:31.231Z,18
2017-06-29T02:34:33.591Z,18
2017-06-29T02:35:35.618Z,18
2017-06-29T02:36:37.636Z,18
2017-06-29T02:37:39.656Z,18
2017-06-29T02:38:41.684Z,18
2017-06-29T02:39:43.704Z,18
2017-06-29T02:40:46.063Z,18
2017-06-29T02:41:48.084Z,18
2017-06-29T02:42:50.109Z,18
2017-06-29T02:43:52.126Z,18
2017-06-29T02:44:54.147Z,18
2017-06-29T02:45:56.169Z,18.1
2017-06-29T02:46:58.186Z,18.1
2017-06-29T02:48:00.550Z,18.1
2017-06-29T02:49:02.573Z,18
2017-06-29T02:50:04.592Z,18
2017-06-29T02:51:06.608Z,18
2017-06-29T02:52:08.630Z,18
2017-06-29T02:53:10.656Z,18
2017-06-29T02:54:12.686Z,18
2017-06-29T02:55:14.707Z,18
2017-06-29T02:56:16.729Z,18
2017-06-29T02:57:18.747Z,18
2017-06-29T02:58:20.768Z,18
2017-06-29T02:59:22.791Z,18
2017-06-29T03:00:24.821Z,18
2017-06-29T03:01:26.838Z,18
2017-06-29T03:02:28.851Z,18
2017-06-29T03:03:30.873Z,17.9
2017-06-29T03:04:32.897Z,18
2017-06-29T03:05:34.915Z,18
2017-06-29T03:06:37.274Z,18
2017-06-29T03:07:39.634Z,18
2017-06-29T03:08:41.657Z,18
2017-06-29T03:09:43.676Z,18
2017-06-29T03:10:46.030Z,18
2017-06-29T03:11:48.059Z,18.1
2017-06-29T03:12:50.748Z,18.1
2017-06-29T03:13:52.774Z,18.1
2017-06-29T03:14:54.792Z,18
2017-06-29T03:15:56.809Z,18.1
2017-06-29T03:16:59.173Z,18
2017-06-29T03:18:01.191Z,18
2017-06-29T03:19:03.222Z,18
2017-06-29T03:20:05.240Z,18
2017-06-29T03:21:07.259Z,18
2017-06-29T03:22:09.285Z,18
2017-06-29T03:23:11.310Z,17.9
2017-06-29T03:24:13.679Z,17.9
2017-06-29T03:25:15.698Z,17.9
2017-06-29T03:26:17.721Z,17.9
2017-06-29T03:27:19.743Z,17.9
2017-06-29T03:28:21.769Z,17.8
2017-06-29T03:29:24.125Z,17.8
2017-06-29T03:30:26.142Z,17.9
2017-06-29T03:31:28.165Z,17.9
2017-06-29T03:32:30.189Z,17.9
2017-06-29T03:33:32.208Z,17.9
2017-06-29T03:34:34.237Z,17.9
2017-06-29T03:35:36.259Z,17.9
2017-06-29T03:36:38.285Z,17.8
2017-06-29T03:37:40.640Z,17.9
2017-06-29T03:38:42.663Z,17.9
2017-06-29T03:39:44.677Z,17.8
2017-06-29T03:40:46.705Z,17.8
2017-06-29T03:41:48.716Z,17.9
2017-06-29T03:42:50.746Z,17.9
2017-06-29T03:43:52.765Z,17.9
2017-06-29T03:44:54.787Z,17.9
2017-06-29T03:45:57.147Z,17.9
2017-06-29T03:46:59.510Z,17.8
2017-06-29T03:48:01.530Z,17.8
2017-06-29T03:49:03.893Z,17.8
2017-06-29T03:50:05.912Z,17.9
2017-06-29T03:51:07.938Z,17.9
2017-06-29T03:52:09.961Z,17.9
2017-06-29T03:53:12.339Z,17.9
2017-06-29T03:54:14.362Z,17.9
2017-06-29T03:55:16.384Z,17.9
2017-06-29T03:56:18.404Z,18
2017-06-29T03:57:20.422Z,18
2017-06-29T03:58:22.449Z,18
2017-06-29T03:59:24.468Z,18
2017-06-29T04:00:26.829Z,18.1
2017-06-29T04:01:29.180Z,18.1
2017-06-29T04:02:31.208Z,18.1
2017-06-29T04:03:33.905Z,18.2
2017-06-29T04:04:35.926Z,18.2
2017-06-29T04:05:37.951Z,18.2
2017-06-29T04:06:40.306Z,18.2
2017-06-29T04:07:42.327Z,18.3
2017-06-29T04:08:44.352Z,18.3
2017-06-29T04:09:46.378Z,18.3
2017-06-29T04:10:48.439Z,18.3
2017-06-29T04:11:50.459Z,18.4
2017-06-29T04:12:52.487Z,18.4
2017-06-29T04:13:54.516Z,18.4
2017-06-29T04:14:56.553Z,18.4
2017-06-29T04:15:58.591Z,18.4
2017-06-29T04:17:00.604Z,18.4
2017-06-29T04:18:02.623Z,18.4
2017-06-29T04:19:04.649Z,18.5
2017-06-29T04:20:06.666Z,18.4
2017-06-29T04:21:08.685Z,18.5
2017-06-29T04:22:10.704Z,18.5
2017-06-29T04:23:12.721Z,18.4
2017-06-29T04:24:14.739Z,18.5
2017-06-29T04:25:16.757Z,18.5
2017-06-29T04:26:18.772Z,18.5
2017-06-29T04:27:21.143Z,18.5
2017-06-29T04:28:23.163Z,18.5
2017-06-29T04:29:25.526Z,18.6
2017-06-29T04:30:27.554Z,18.6
2017-06-29T04:31:29.926Z,18.6
2017-06-29T04:32:31.955Z,18.6
2017-06-29T04:33:33.981Z,18.6
2017-06-29T04:34:36.382Z,18.6
2017-06-29T04:35:38.440Z,18.6
2017-06-29T04:36:40.452Z,18.6
2017-06-29T04:37:42.485Z,18.6
2017-06-29T04:38:44.507Z,18.6
2017-06-29T04:39:47.211Z,18.6
2017-06-29T04:40:49.226Z,18.6
2017-06-29T04:41:51.586Z,18.6
2017-06-29T04:42:53.953Z,18.6
2017-06-29T04:43:55.981Z,18.6
2017-06-29T04:44:58.342Z,18.6
2017-06-29T04:46:00.357Z,18.6
2017-06-29T04:47:02.386Z,18.6
2017-06-29T04:48:04.774Z,18.6
2017-06-29T04:49:07.136Z,18.6
2017-06-29T04:50:09.171Z,18.6
2017-06-29T04:51:11.193Z,18.6
2017-06-29T04:52:13.213Z,18.6
2017-06-29T04:53:15.238Z,18.6
2017-06-29T04:54:17.593Z,18.7
2017-06-29T04:55:19.613Z,18.7
2017-06-29T04:56:21.629Z,18.7
2017-06-29T04:57:23.643Z,18.7
2017-06-29T04:58:25.668Z,18.7
2017-06-29T04:59:27.690Z,18.7
2017-06-29T05:00:29.705Z,18.7
2017-06-29T05:01:32.069Z,18.7
2017-06-29T05:02:34.090Z,18.7
2017-06-29T05:03:36.100Z,18.6
2017-06-29T05:04:38.126Z,18.6
2017-06-29T05:05:40.142Z,18.6
2017-06-29T05:06:42.171Z,18.6
2017-06-29T05:07:44.188Z,18.7
2017-06-29T05:08:46.204Z,18.6
2017-06-29T05:09:48.231Z,18.6
2017-06-29T05:10:50.259Z,18.6
2017-06-29T05:11:52.288Z,18.7
2017-06-29T05:12:54.648Z,18.8
2017-06-29T05:13:57.007Z,18.8
2017-06-29T05:14:59.377Z,18.9
2017-06-29T05:16:01.396Z,18.9
2017-06-29T05:17:03.416Z,18.9
2017-06-29T05:18:05.435Z,18.9
2017-06-29T05:19:07.454Z,18.9
2017-06-29T05:20:09.481Z,18.9
2017-06-29T05:21:11.498Z,18.9
2017-06-29T05:22:13.526Z,18.9
2017-06-29T05:23:15.548Z,18.9
2017-06-29T05:24:17.591Z,18.9
2017-06-29T05:25:19.614Z,18.9
2017-06-29T05:26:21.637Z,19
2017-06-29T05:27:23.666Z,18.9
2017-06-29T05:28:25.681Z,19
2017-06-29T05:29:27.709Z,18.9
2017-06-29T05:30:29.736Z,19
2017-06-29T05:31:31.790Z,19
2017-06-29T05:32:33.814Z,19
2017-06-29T05:33:35.832Z,19
2017-06-29T05:34:38.194Z,19
2017-06-29T05:35:40.221Z,18.9
2017-06-29T05:36:42.247Z,18.9
2017-06-29T05:37:44.268Z,18.9
2017-06-29T05:38:46.289Z,19
2017-06-29T05:39:48.309Z,18.9
2017-06-29T05:40:50.331Z,18.9
2017-06-29T05:41:52.362Z,18.9
2017-06-29T05:42:54.718Z,18.9
2017-06-29T05:43:56.748Z,18.9
2017-06-29T05:44:58.769Z,18.9
2017-06-29T05:46:00.789Z,18.9
2017-06-29T05:47:03.166Z,18.9
2017-06-29T05:48:05.193Z,19
2017-06-29T05:49:07.220Z,19
2017-06-29T05:50:09.235Z,19
2017-06-29T05:51:11.255Z,19
2017-06-29T05:52:13.276Z,19
2017-06-29T05:53:15.296Z,19
2017-06-29T05:54:17.654Z,19
2017-06-29T05:55:19.672Z,19.1
2017-06-29T05:56:21.693Z,19.1
2017-06-29T05:57:23.718Z,19.1
2017-06-29T05:58:26.422Z,19.1
2017-06-29T05:59:28.450Z,19.2
2017-06-29T06:00:30.481Z,19.2
2017-06-29T06:01:32.853Z,19.2
2017-06-29T06:02:35.216Z,19.2
2017-06-29T06:03:37.240Z,19.2
2017-06-29T06:04:39.259Z,19.2
2017-06-29T06:05:41.615Z,19.2
2017-06-29T06:06:43.636Z,19.4
2017-06-29T06:07:45.666Z,19.4
2017-06-29T06:08:47.743Z,19.5
2017-06-29T06:09:49.856Z,19.5
2017-06-29T06:10:53.350Z,19.6
2017-06-29T06:11:56.486Z,19.6
2017-06-29T06:13:00.829Z,19.6
2017-06-29T06:14:03.763Z,19.6
2017-06-29T06:15:07.026Z,19.6
2017-06-29T06:16:11.924Z,19.6
2017-06-29T06:17:16.552Z,19.7
2017-06-29T06:18:19.770Z,19.6
2017-06-29T06:19:22.888Z,19.7
2017-06-29T06:20:27.560Z,19.8
2017-06-29T06:21:31.683Z,19.9
2017-06-29T06:22:36.355Z,19.9
2017-06-29T06:23:41.533Z,20
2017-06-29T06:24:45.216Z,20
2017-06-29T06:25:48.407Z,20
2017-06-29T06:26:52.196Z,20
2017-06-29T06:27:54.765Z,20
2017-06-29T06:28:58.613Z,20
2017-06-29T06:30:02.542Z,20.1
2017-06-29T06:31:05.783Z,20.1
2017-06-29T06:32:09.603Z,20.1
2017-06-29T06:33:14.255Z,20.2
2017-06-29T06:34:16.773Z,20.2
2017-06-29T06:35:22.622Z,20.2
2017-06-29T06:36:26.625Z,20.2
2017-06-29T06:37:31.005Z,20.2
2017-06-29T06:38:34.681Z,20.2
2017-06-29T06:39:39.299Z,20.3
2017-06-29T06:40:44.254Z,20.3
2017-06-29T06:41:49.288Z,20.3
2017-06-29T06:42:52.612Z,20.3
2017-06-29T06:43:55.239Z,20.4
2017-06-29T06:44:59.835Z,20.4
2017-06-29T06:46:02.696Z,20.5
2017-06-29T06:47:05.095Z,20.5
2017-06-29T06:48:07.117Z,20.5
2017-06-29T06:49:09.145Z,20.5
2017-06-29T06:50:11.214Z,20.5
2017-06-29T06:51:13.238Z,20.5
2017-06-29T06:52:15.259Z,20.6
2017-06-29T06:53:17.281Z,20.6
2017-06-29T06:54:19.654Z,20.6
2017-06-29T06:55:21.670Z,20.6
2017-06-29T06:56:23.702Z,20.6
2017-06-29T06:57:25.736Z,20.6
2017-06-29T06:58:27.771Z,20.7
2017-06-29T06:59:29.791Z,20.6
2017-06-29T07:00:31.815Z,20.6
2017-06-29T07:01:33.887Z,20.7
2017-06-29T07:02:35.914Z,20.8
2017-06-29T07:03:38.274Z,20.8
2017-06-29T07:04:40.324Z,20.9
2017-06-29T07:05:42.344Z,20.9
2017-06-29T07:06:44.745Z,20.9
2017-06-29T07:07:46.985Z,20.8
2017-06-29T07:08:49.016Z,20.8
2017-06-29T07:09:51.057Z,20.9
2017-06-29T07:10:53.086Z,20.8
2017-06-29T07:11:56.407Z,20.9
2017-06-29T07:12:58.432Z,21
2017-06-29T07:14:00.458Z,21.1
2017-06-29T07:15:02.830Z,21
2017-06-29T07:16:04.855Z,21
2017-06-29T07:17:07.226Z,21
2017-06-29T07:18:09.243Z,21.1
2017-06-29T07:19:11.276Z,21.1
2017-06-29T07:20:13.295Z,21.1
2017-06-29T07:21:16.008Z,21.1
2017-06-29T07:22:18.035Z,21.2
2017-06-29T07:23:20.057Z,21.1
2017-06-29T07:24:22.129Z,21.2
2017-06-29T07:25:24.150Z,21.3
2017-06-29T07:26:26.179Z,21.4
2017-06-29T07:27:28.207Z,21.4
2017-06-29T07:28:30.235Z,21.3
2017-06-29T07:29:32.264Z,21.4
2017-06-29T07:30:34.289Z,21.4
2017-06-29T07:31:36.309Z,21.4
2017-06-29T07:32:38.336Z,21.4
2017-06-29T07:33:40.362Z,21.3
2017-06-29T07:34:42.382Z,21.4
2017-06-29T07:35:44.409Z,21.4
2017-06-29T07:36:46.772Z,21.5
2017-06-29T07:37:49.155Z,21.4
2017-06-29T07:38:51.849Z,21.4
2017-06-29T07:39:53.880Z,21.5
2017-06-29T07:40:56.287Z,21.5
2017-06-29T07:41:58.312Z,21.6
2017-06-29T07:43:00.677Z,21.7
2017-06-29T07:44:02.701Z,21.5
2017-06-29T07:45:05.089Z,21.6
2017-06-29T07:46:07.121Z,21.7
2017-06-29T07:47:09.140Z,21.6
2017-06-29T07:48:11.169Z,21.6
2017-06-29T07:49:13.228Z,21.7
2017-06-29T07:50:15.254Z,21.7
2017-06-29T07:51:17.285Z,21.6
2017-06-29T07:52:19.312Z,21.6
2017-06-29T07:53:21.370Z,21.5
2017-06-29T07:54:23.400Z,21.5
2017-06-29T07:55:25.419Z,21.6
2017-06-29T07:56:27.451Z,21.5
2017-06-29T07:57:29.509Z,21.6
2017-06-29T07:58:31.549Z,21.6
2017-06-29T07:59:33.571Z,21.6
2017-06-29T08:00:35.597Z,21.6
2017-06-29T08:01:37.632Z,21.6
2017-06-29T08:02:39.989Z,21.6
2017-06-29T08:03:42.016Z,21.5
2017-06-29T08:04:44.044Z,21.6
2017-06-29T08:05:46.072Z,21.6
2017-06-29T08:06:48.108Z,21.8
2017-06-29T08:07:50.464Z,21.8
2017-06-29T08:08:52.501Z,21.8
2017-06-29T08:09:54.528Z,21.7
2017-06-29T08:10:56.552Z,21.8
2017-06-29T08:11:58.579Z,21.8
2017-06-29T08:13:00.607Z,21.9
2017-06-29T08:14:02.629Z,21.9
2017-06-29T08:15:05.006Z,22
2017-06-29T08:16:07.027Z,22
2017-06-29T08:17:09.400Z,22.2
2017-06-29T08:18:11.753Z,22.3
2017-06-29T08:19:13.778Z,22.4
2017-06-29T08:20:15.808Z,22.5
2017-06-29T08:21:17.836Z,22.5
2017-06-29T08:22:19.865Z,22.4
2017-06-29T08:23:21.896Z,22.6
2017-06-29T08:24:23.932Z,22.6
2017-06-29T08:25:25.969Z,22.7
2017-06-29T08:26:27.998Z,22.7
2017-06-29T08:27:30.357Z,22.8
2017-06-29T08:28:32.384Z,22.8
2017-06-29T08:29:34.414Z,22.7
2017-06-29T08:30:36.441Z,22.7
2017-06-29T08:31:38.842Z,22.6
2017-06-29T08:32:40.871Z,22.6
2017-06-29T08:33:42.899Z,22.8
2017-06-29T08:34:44.930Z,22.9
2017-06-29T08:35:46.948Z,22.9
2017-06-29T08:36:48.980Z,22.9
2017-06-29T08:37:51.007Z,22.9
2017-06-29T08:38:53.032Z,22.9
2017-06-29T08:39:55.062Z,22.8
2017-06-29T08:40:57.094Z,22.7
2017-06-29T08:41:59.131Z,22.6
2017-06-29T08:43:01.163Z,22.6
2017-06-29T08:44:03.569Z,22.5
2017-06-29T08:45:05.594Z,22.6
2017-06-29T08:46:07.621Z,22.7
2017-06-29T08:47:09.650Z,22.6
2017-06-29T08:48:11.678Z,22.8
2017-06-29T08:49:13.710Z,22.9
2017-06-29T08:50:15.732Z,23
2017-06-29T08:51:17.763Z,23
2017-06-29T08:52:19.790Z,23
2017-06-29T08:53:21.813Z,23.1
2017-06-29T08:54:23.847Z,23.1
2017-06-29T08:55:25.874Z,23.1
2017-06-29T08:56:27.901Z,23.2
2017-06-29T08:57:30.267Z,23.2
2017-06-29T08:58:32.295Z,23.1
2017-06-29T08:59:34.357Z,23.1
2017-06-29T09:00:36.727Z,23.2
2017-06-29T09:01:38.755Z,23.2
2017-06-29T09:02:40.790Z,23.2
2017-06-29T09:03:42.819Z,23.1
2017-06-29T09:04:44.843Z,23.2
2017-06-29T09:05:46.872Z,23.1
2017-06-29T09:06:48.906Z,23.1
2017-06-29T09:07:50.933Z,23.2
2017-06-29T09:08:52.958Z,23.2
2017-06-29T09:09:54.993Z,23.1
2017-06-29T09:10:57.018Z,23.2
2017-06-29T09:11:59.045Z,23.2
2017-06-29T09:13:01.071Z,23.2
2017-06-29T09:14:03.133Z,23.2
2017-06-29T09:15:05.161Z,23.1
2017-06-29T09:16:07.188Z,23.1
2017-06-29T09:17:09.216Z,22.9
2017-06-29T09:18:11.258Z,23
2017-06-29T09:19:13.282Z,23.1
2017-06-29T09:20:15.314Z,23
2017-06-29T09:21:17.346Z,23
2017-06-29T09:22:19.379Z,23
2017-06-29T09:23:21.406Z,23
2017-06-29T09:24:23.778Z,23
2017-06-29T09:25:25.805Z,23
2017-06-29T09:26:27.839Z,23
2017-06-29T09:27:30.206Z,23
2017-06-29T09:28:32.245Z,23.1
2017-06-29T09:29:34.282Z,23.1
2017-06-29T09:30:36.308Z,23
2017-06-29T09:31:38.332Z,23.1
2017-06-29T09:32:40.359Z,23.1
2017-06-29T09:33:42.389Z,23.2
2017-06-29T09:34:44.417Z,23.2
2017-06-29T09:35:46.449Z,23.4
2017-06-29T09:36:48.824Z,23.4
2017-06-29T09:37:50.854Z,23.5
2017-06-29T09:38:53.214Z,23.4
2017-06-29T09:39:55.248Z,23.5
2017-06-29T09:40:57.284Z,23.5
2017-06-29T09:41:59.314Z,23.4
2017-06-29T09:43:01.338Z,23.2
2017-06-29T09:44:03.366Z,23.2
2017-06-29T09:45:05.404Z,23.2
2017-06-29T09:46:07.433Z,23.2
2017-06-29T09:47:09.465Z,23.2
2017-06-29T09:48:11.492Z,23.1
2017-06-29T09:49:13.523Z,23.1
2017-06-29T09:50:15.562Z,23.1
2017-06-29T09:51:17.586Z,23.1
2017-06-29T09:52:19.953Z,22.9
2017-06-29T09:53:21.997Z,23.1
2017-06-29T09:54:24.030Z,23
2017-06-29T09:55:26.064Z,23
2017-06-29T09:56:28.090Z,22.9
2017-06-29T09:57:30.123Z,22.9
2017-06-29T09:58:32.488Z,22.9
2017-06-29T09:59:34.514Z,23
2017-06-29T10:00:36.549Z,23
2017-06-29T10:01:38.573Z,22.9
2017-06-29T10:02:40.597Z,22.8
2017-06-29T10:03:42.623Z,22.9
2017-06-29T10:04:44.653Z,22.9
2017-06-29T10:05:47.024Z,22.8
2017-06-29T10:06:49.386Z,22.8
2017-06-29T10:07:51.417Z,22.7
2017-06-29T10:08:53.456Z,22.6
2017-06-29T10:09:55.483Z,22.6
2017-06-29T10:10:57.512Z,22.7
2017-06-29T10:11:59.541Z,22.7
2017-06-29T10:13:01.582Z,22.7
2017-06-29T10:14:03.611Z,22.6
2017-06-29T10:15:05.635Z,22.6
2017-06-29T10:16:07.671Z,22.6
2017-06-29T10:17:09.707Z,22.7
2017-06-29T10:18:12.075Z,22.8
2017-06-29T10:19:14.104Z,22.7
2017-06-29T10:20:16.143Z,22.7
2017-06-29T10:21:18.169Z,22.8
2017-06-29T10:22:20.233Z,22.8
2017-06-29T10:23:22.274Z,22.9
2017-06-29T10:24:24.305Z,23
2017-06-29T10:25:26.326Z,23
2017-06-29T10:26:28.357Z,23
2017-06-29T10:27:30.733Z,23
2017-06-29T10:28:32.761Z,23
2017-06-29T10:29:34.794Z,23
2017-06-29T10:30:36.831Z,23.2
2017-06-29T10:31:38.861Z,23.2
2017-06-29T10:32:40.882Z,23.2
2017-06-29T10:33:42.914Z,23.1
2017-06-29T10:34:45.276Z,23.1
2017-06-29T10:35:47.302Z,23.2
2017-06-29T10:36:49.337Z,23.2
2017-06-29T10:37:51.369Z,23.2
2017-06-29T10:38:53.401Z,23.3
2017-06-29T10:39:55.428Z,23.1
2017-06-29T10:40:57.454Z,23.1
2017-06-29T10:41:59.838Z,23.2
2017-06-29T10:43:01.868Z,23.2
2017-06-29T10:44:03.892Z,23.2
2017-06-29T10:45:06.274Z,23.3
2017-06-29T10:46:08.303Z,23.3
2017-06-29T10:47:10.344Z,23.5
2017-06-29T10:48:12.370Z,23.6
2017-06-29T10:49:14.399Z,23.7
2017-06-29T10:50:16.432Z,23.6
2017-06-29T10:51:18.462Z,23.7
2017-06-29T10:52:20.500Z,23.7
2017-06-29T10:53:22.869Z,23.5
2017-06-29T10:54:24.894Z,23.5
2017-06-29T10:55:26.930Z,23.4
2017-06-29T10:56:30.001Z,23.3
2017-06-29T10:57:32.591Z,23.3
2017-06-29T10:58:34.776Z,23.4
2017-06-29T10:59:37.185Z,23.4
2017-06-29T11:00:39.220Z,23.4
2017-06-29T11:01:41.255Z,23.5
2017-06-29T11:02:43.285Z,23.4
2017-06-29T11:03:45.327Z,23.5
2017-06-29T11:04:47.351Z,23.4
2017-06-29T11:05:53.582Z,23.4
2017-06-29T11:07:00.420Z,23.6
2017-06-29T11:08:08.303Z,23.5
2017-06-29T11:09:17.982Z,23.4
2017-06-29T11:10:26.912Z,23.3
2017-06-29T11:11:36.421Z,23.3
2017-06-29T11:12:44.024Z,23.3
2017-06-29T11:13:47.001Z,23.3
2017-06-29T11:14:49.592Z,23.4
2017-06-29T11:15:53.788Z,23.4
2017-06-29T11:16:58.964Z,23.4
2017-06-29T11:18:08.852Z,23.5
2017-06-29T11:19:18.380Z,23.7
2017-06-29T11:20:25.704Z,23.8
2017-06-29T11:21:33.921Z,24.1
2017-06-29T11:22:43.244Z,24.1
2017-06-29T11:23:51.327Z,24.1
2017-06-29T11:24:58.148Z,24.2
2017-06-29T11:26:06.946Z,24.2
2017-06-29T11:27:14.936Z,23.9
2017-06-29T11:28:23.216Z,23.9
2017-06-29T11:29:32.533Z,23.9
2017-06-29T11:30:35.782Z,23.8
2017-06-29T11:31:37.820Z,23.8
2017-06-29T11:32:39.855Z,23.8
2017-06-29T11:33:41.887Z,23.8
2017-06-29T11:34:43.920Z,23.8
2017-06-29T11:35:45.953Z,23.8
2017-06-29T11:36:47.991Z,23.9
2017-06-29T11:37:50.036Z,23.8
2017-06-29T11:38:52.100Z,23.6
2017-06-29T11:39:54.124Z,23.7
2017-06-29T11:40:56.155Z,23.6
2017-06-29T11:41:58.205Z,23.7
2017-06-29T11:43:00.240Z,23.7
2017-06-29T11:44:02.603Z,23.8
2017-06-29T11:45:04.990Z,23.7
2017-06-29T11:46:07.026Z,23.7
2017-06-29T11:47:09.058Z,23.8
2017-06-29T11:48:11.429Z,23.7
2017-06-29T11:49:13.460Z,23.9
2017-06-29T11:50:15.493Z,23.6
2017-06-29T11:51:17.534Z,23.6
2017-06-29T11:52:19.563Z,23.5
2017-06-29T11:53:21.594Z,23.5
2017-06-29T11:54:23.623Z,23.6
2017-06-29T11:55:25.649Z,23.5
2017-06-29T11:56:27.693Z,23.5
2017-06-29T11:57:29.722Z,23.5
2017-06-29T11:58:31.792Z,23.5
2017-06-29T11:59:33.828Z,23.4
2017-06-29T12:00:35.883Z,23.5
2017-06-29T12:01:38.134Z,23.5
2017-06-29T12:02:40.170Z,23.5
2017-06-29T12:03:42.215Z,23.5
2017-06-29T12:04:44.255Z,23.5
2017-06-29T12:05:46.286Z,23.5
2017-06-29T12:06:48.665Z,23.2
2017-06-29T12:07:50.694Z,23.3
2017-06-29T12:08:52.729Z,23.4
2017-06-29T12:09:54.766Z,23.2
2017-06-29T12:10:56.798Z,23.1
2017-06-29T12:11:58.833Z,23.1
2017-06-29T12:13:00.859Z,23
2017-06-29T12:14:02.887Z,23.1
2017-06-29T12:15:05.280Z,23.1
2017-06-29T12:16:07.647Z,23
2017-06-29T12:17:09.685Z,23
2017-06-29T12:18:11.717Z,22.9
2017-06-29T12:19:13.751Z,22.9
2017-06-29T12:20:15.776Z,22.9
2017-06-29T12:21:17.813Z,22.9
2017-06-29T12:22:20.183Z,22.9
2017-06-29T12:23:22.212Z,22.7
2017-06-29T12:24:24.243Z,22.6
2017-06-29T12:25:26.273Z,22.6
2017-06-29T12:26:28.303Z,22.5
2017-06-29T12:27:30.336Z,22.5
2017-06-29T12:28:32.375Z,22.5
2017-06-29T12:29:34.416Z,22.5
2017-06-29T12:30:36.780Z,22.5
2017-06-29T12:31:38.809Z,22.5
2017-06-29T12:32:40.839Z,22.3
2017-06-29T12:33:42.865Z,22.4
2017-06-29T12:34:44.894Z,22.4
2017-06-29T12:35:46.965Z,22.4
2017-06-29T12:36:48.989Z,22.3
2017-06-29T12:37:51.016Z,22.3
2017-06-29T12:38:53.048Z,22.1
2017-06-29T12:39:55.066Z,22.2
2017-06-29T12:40:57.096Z,22.2
2017-06-29T12:41:59.123Z,22
2017-06-29T12:43:01.145Z,22
2017-06-29T12:44:03.513Z,22
2017-06-29T12:45:05.539Z,21.9
2017-06-29T12:46:07.606Z,21.9
2017-06-29T12:47:09.630Z,21.8
2017-06-29T12:48:12.008Z,21.7
2017-06-29T12:49:14.033Z,21.7
2017-06-29T12:50:16.401Z,21.7
2017-06-29T12:51:18.427Z,21.6
2017-06-29T12:52:20.462Z,21.6
2017-06-29T12:53:22.492Z,21.5
2017-06-29T12:54:24.518Z,21.3
2017-06-29T12:55:26.546Z,21.3
2017-06-29T12:56:28.572Z,21.2
2017-06-29T12:57:31.270Z,21
2017-06-29T12:58:33.324Z,21
2017-06-29T12:59:35.686Z,20.9
2017-06-29T13:00:37.711Z,20.9
2017-06-29T13:01:39.729Z,20.9
2017-06-29T13:02:41.756Z,20.9
2017-06-29T13:03:43.781Z,20.7
2017-06-29T13:04:46.636Z,20.6
2017-06-29T13:05:49.028Z,20.6
2017-06-29T13:06:51.057Z,20.6
2017-06-29T13:07:53.077Z,20.6
2017-06-29T13:08:55.099Z,20.6
2017-06-29T13:09:57.122Z,20.6
2017-06-29T13:10:59.489Z,20.4
2017-06-29T13:12:01.506Z,20.2
2017-06-29T13:13:03.536Z,20.2
2017-06-29T13:14:06.253Z,20.2
2017-06-29T13:15:08.626Z,20.2
2017-06-29T13:16:10.651Z,20.1
2017-06-29T13:17:12.679Z,20
2017-06-29T13:18:14.704Z,19.9
2017-06-29T13:19:16.759Z,19.9
2017-06-29T13:20:19.118Z,19.9
2017-06-29T13:21:21.485Z,19.8
2017-06-29T13:22:23.625Z,19.9
2017-06-29T13:23:26.107Z,19.9
2017-06-29T13:24:28.128Z,19.9
2017-06-29T13:25:30.163Z,19.9
2017-06-29T13:26:32.528Z,19.8
2017-06-29T13:27:34.553Z,19.8
2017-06-29T13:28:36.920Z,19.8
2017-06-29T13:29:38.949Z,19.8
2017-06-29T13:30:41.350Z,19.7
2017-06-29T13:31:43.373Z,19.6
2017-06-29T13:33:43.199Z,19.5
2017-06-29T13:34:45.247Z,19.5
2017-06-29T13:35:47.627Z,19.5
2017-06-29T13:36:49.678Z,19.5
2017-06-29T13:37:51.723Z,19.5
2017-06-29T13:38:53.766Z,19.5
2017-06-29T13:39:56.156Z,19.4
2017-06-29T13:40:58.193Z,19.3
2017-06-29T13:42:00.251Z,19.3
2017-06-29T13:43:03.482Z,19.2
2017-06-29T13:44:05.628Z,19.1
2017-06-29T13:45:07.675Z,19
2017-06-29T13:46:09.710Z,19
2017-06-29T13:47:11.766Z,19
2017-06-29T13:48:14.156Z,18.9
2017-06-29T13:49:16.201Z,18.9
2017-06-29T13:50:18.240Z,18.8
2017-06-29T13:51:20.282Z,18.8
2017-06-29T13:52:22.352Z,18.8
2017-06-29T13:53:24.408Z,18.8
2017-06-29T13:54:26.445Z,18.6
2017-06-29T13:55:28.510Z,18.6
2017-06-29T13:56:30.561Z,18.7
2017-06-29T13:57:32.950Z,18.7
2017-06-29T13:58:35.355Z,18.6
2017-06-29T13:59:37.386Z,18.7